Time;durP1;ratioP1;P1;durP2;ratioP2;P2;SDS_P1;SDS_P2;PMS_P1;PMS_P2;Temp;Humidity;BMP_temperature;BMP_pressure;BME280_temperature;BME280_humidity;BME280_pressure;Samples;Min_cycle;Max_cycle;Signal;HPM_P1;HPM_P2
2022/10/30 00:00:58;;;;;;;12.30;7.03;;;22.00;73.10;;;;;;4994994;28;90866;-88
2022/10/30 00:03:24;;;;;;;12.85;6.95;;;22.00;73.20;;;;;;4997630;27;87872;-87
2022/10/30 00:05:53;;;;;;;11.77;6.25;;;21.90;73.20;;;;;;4996964;28;86990;-87
2022/10/30 00:08:21;;;;;;;10.95;6.70;;;22.00;73.20;;;;;;4997763;28;95122;-88
2022/10/30 00:10:49;;;;;;;11.35;6.30;;;21.90;73.20;;;;;;4989026;27;87457;-88
2022/10/30 00:13:14;;;;;;;9.57;6.00;;;21.90;73.10;;;;;;4997226;27;86728;-88
2022/10/30 00:15:47;;;;;;;10.18;6.13;;;21.90;73.00;;;;;;4997495;27;87268;-86
2022/10/30 00:18:13;;;;;;;10.50;6.57;;;21.90;73.00;;;;;;5028597;27;90264;-87
2022/10/30 00:20:39;;;;;;;10.38;6.70;;;21.90;73.00;;;;;;4995897;28;89686;-87
2022/10/30 00:23:04;;;;;;;11.57;6.38;;;21.90;73.20;;;;;;4997399;27;89741;-88
2022/10/30 00:25:30;;;;;;;10.13;6.28;;;21.90;73.30;;;;;;4997489;27;87057;-87
2022/10/30 00:27:56;;;;;;;10.25;6.63;;;21.90;73.20;;;;;;4996988;27;87416;-87
2022/10/30 00:30:21;;;;;;;10.52;6.75;;;21.90;73.30;;;;;;4996832;27;88439;-87
2022/10/30 00:32:49;;;;;;;9.88;6.22;;;21.90;73.40;;;;;;4995958;28;91643;-87
2022/10/30 00:35:14;;;;;;;9.98;6.47;;;21.90;73.20;;;;;;4996942;27;87391;-88
2022/10/30 00:37:40;;;;;;;9.75;5.80;;;21.90;73.30;;;;;;4995421;27;90309;-88
2022/10/30 00:40:06;;;;;;;9.55;6.07;;;21.80;73.30;;;;;;4997018;27;88413;-86
2022/10/30 00:42:32;;;;;;;8.60;5.65;;;21.80;73.40;;;;;;4996780;27;88217;-87
2022/10/30 00:44:58;;;;;;;9.93;6.28;;;21.80;73.20;;;;;;4997472;28;87956;-88
2022/10/30 00:47:38;;;;;;;8.77;5.80;;;21.80;73.10;;;;;;4995421;27;87419;-87
2022/10/30 00:50:36;;;;;;;9.68;5.93;;;21.80;73.30;;;;;;4996910;27;87768;-88
2022/10/30 00:53:10;;;;;;;9.23;6.05;;;21.80;73.30;;;;;;4973733;28;89094;-87
2022/10/30 00:55:57;;;;;;;9.38;6.03;;;21.80;73.20;;;;;;4974604;28;87161;-87
2022/10/30 00:58:27;;;;;;;10.60;6.82;;;21.80;74.00;;;;;;4974101;28;87513;-88
2022/10/30 01:00:56;;;;;;;9.38;5.80;;;21.80;73.40;;;;;;4958025;28;90588;-87
2022/10/30 01:03:23;;;;;;;8.48;5.97;;;21.80;73.30;;;;;;4974700;28;87767;-87
2022/10/30 01:05:53;;;;;;;10.65;5.82;;;21.80;73.50;;;;;;4975284;28;87867;-87
2022/10/30 01:08:19;;;;;;;9.93;5.80;;;21.80;73.30;;;;;;4974618;28;87701;-88
2022/10/30 01:10:46;;;;;;;8.63;5.70;;;21.80;73.30;;;;;;4972988;28;89975;-88
2022/10/30 01:13:21;;;;;;;8.77;6.07;;;21.80;73.50;;;;;;4974236;28;89242;-87
2022/10/30 01:16:20;;;;;;;8.95;5.65;;;21.80;73.40;;;;;;4974303;28;87540;-87
2022/10/30 01:19:20;;;;;;;8.32;5.43;;;21.80;73.50;;;;;;4974707;28;87523;-87
2022/10/30 01:22:01;;;;;;;9.07;5.50;;;21.80;73.40;;;;;;4973895;28;88711;-86
2022/10/30 01:24:36;;;;;;;9.50;5.85;;;21.80;73.50;;;;;;4957895;28;90374;-88
2022/10/30 01:27:34;;;;;;;11.00;6.15;;;21.80;73.40;;;;;;4973240;28;87387;-86
2022/10/30 01:30:32;;;;;;;9.63;5.83;;;21.80;73.30;;;;;;4996926;28;87023;-88
2022/10/30 01:33:03;;;;;;;8.63;5.43;;;21.70;73.20;;;;;;4973672;28;88537;-88
2022/10/30 01:35:43;;;;;;;9.23;5.75;;;21.80;73.40;;;;;;4974028;28;88668;-87
2022/10/30 01:38:46;;;;;;;12.48;6.05;;;21.80;73.50;;;;;;4973851;28;88539;-87
2022/10/30 01:41:12;;;;;;;8.05;5.20;;;21.80;73.50;;;;;;4915730;28;87692;-87
2022/10/30 01:43:39;;;;;;;8.70;5.57;;;21.70;73.50;;;;;;4916192;28;89070;-88
2022/10/30 01:46:07;;;;;;;9.52;5.82;;;21.70;73.40;;;;;;4915545;28;88708;-86
2022/10/30 01:48:50;;;;;;;7.73;5.33;;;21.70;73.30;;;;;;4915695;28;87427;-86
2022/10/30 01:51:45;;;;;;;10.00;6.30;;;21.70;73.40;;;;;;4915236;28;87527;-87
2022/10/30 01:54:35;;;;;;;7.22;5.20;;;21.70;73.50;;;;;;4876810;28;87851;-88
2022/10/30 01:57:27;;;;;;;9.02;5.43;;;21.70;73.60;;;;;;4877232;28;88288;-86
2022/10/30 02:00:01;;;;;;;9.38;5.82;;;21.70;73.50;;;;;;4820986;29;86879;-87
2022/10/30 02:02:28;;;;;;;7.22;5.25;;;21.70;73.50;;;;;;4819860;29;87588;-87
2022/10/30 02:04:54;;;;;;;8.88;5.78;;;21.60;73.40;;;;;;4818551;29;88440;-87
2022/10/30 02:07:19;;;;;;;7.97;5.03;;;21.60;73.30;;;;;;4804901;29;92407;-87
2022/10/30 02:09:45;;;;;;;9.13;5.60;;;21.70;73.60;;;;;;4822461;29;87227;-87
2022/10/30 02:12:11;;;;;;;7.00;5.38;;;21.60;73.50;;;;;;4838583;29;87609;-87
2022/10/30 02:14:41;;;;;;;8.70;5.50;;;21.60;73.50;;;;;;4839334;29;87805;-87
2022/10/30 02:17:08;;;;;;;8.73;5.60;;;21.60;73.50;;;;;;4832844;29;91334;-88
2022/10/30 02:19:34;;;;;;;9.38;5.90;;;21.60;73.40;;;;;;4857906;29;90862;-87
2022/10/30 02:22:00;;;;;;;8.98;5.40;;;21.60;73.50;;;;;;4822818;29;90856;-87
2022/10/30 02:24:26;;;;;;;9.38;5.35;;;21.60;73.50;;;;;;4822187;29;91497;-87
2022/10/30 02:26:51;;;;;;;8.43;5.60;;;21.60;73.50;;;;;;4839755;29;89063;-88
2022/10/30 02:29:19;;;;;;;7.63;4.97;;;21.60;73.40;;;;;;4837614;29;87903;-87
2022/10/30 02:31:45;;;;;;;8.27;5.38;;;21.60;73.40;;;;;;4897878;28;87611;-88
2022/10/30 02:34:11;;;;;;;9.35;5.40;;;21.60;73.50;;;;;;4914302;28;88142;-88
2022/10/30 02:36:36;;;;;;;7.45;5.28;;;21.60;73.60;;;;;;4938929;28;88768;-88
2022/10/30 02:39:02;;;;;;;8.05;5.57;;;21.60;73.40;;;;;;4993668;28;87367;-87
2022/10/30 02:41:28;;;;;;;8.18;5.07;;;21.60;73.60;;;;;;4992686;28;87555;-88
2022/10/30 02:43:54;;;;;;;10.68;5.80;;;21.60;73.30;;;;;;4991822;28;89377;-87
2022/10/30 02:46:19;;;;;;;8.13;5.53;;;21.60;73.40;;;;;;5009394;28;91304;-87
2022/10/30 02:48:45;;;;;;;8.73;5.60;;;21.60;73.50;;;;;;4992786;28;87026;-87
2022/10/30 02:51:11;;;;;;;7.93;5.05;;;21.60;73.50;;;;;;4970429;28;89692;-87
2022/10/30 02:53:37;;;;;;;6.78;5.00;;;21.60;73.50;;;;;;4986543;28;89377;-87
2022/10/30 02:56:09;;;;;;;7.72;5.35;;;21.50;73.40;;;;;;4992375;28;89205;-87
2022/10/30 02:58:35;;;;;;;8.70;5.63;;;21.60;73.30;;;;;;4992357;28;87231;-86
2022/10/30 03:01:11;;;;;;;8.27;5.38;;;21.60;73.50;;;;;;4992188;28;87884;-86
2022/10/30 03:03:37;;;;;;;7.65;5.43;;;21.50;73.40;;;;;;4992246;28;87996;-87
2022/10/30 03:06:05;;;;;;;7.70;4.90;;;21.50;73.40;;;;;;4992699;28;90233;-88
2022/10/30 03:08:31;;;;;;;7.00;4.82;;;21.50;73.40;;;;;;4975973;28;87335;-87
2022/10/30 03:11:08;;;;;;;7.63;4.95;;;21.50;73.30;;;;;;4994828;28;87392;-87
2022/10/30 03:13:34;;;;;;;7.60;5.25;;;21.50;73.30;;;;;;4994516;28;88508;-88
2022/10/30 03:16:02;;;;;;;8.23;5.20;;;21.50;73.20;;;;;;4995095;28;87771;-87
2022/10/30 03:18:28;;;;;;;8.23;4.72;;;21.50;73.30;;;;;;4994940;28;88627;-88
2022/10/30 03:20:58;;;;;;;6.57;4.95;;;21.50;73.30;;;;;;4996616;28;87523;-88
2022/10/30 03:23:24;;;;;;;6.57;5.13;;;21.50;73.40;;;;;;4997979;27;88682;-88
2022/10/30 03:25:54;;;;;;;8.30;5.10;;;21.50;73.50;;;;;;4997949;27;87813;-87
2022/10/30 03:28:21;;;;;;;7.05;4.47;;;21.50;73.10;;;;;;4998205;27;87183;-87
2022/10/30 03:30:47;;;;;;;7.25;5.10;;;21.50;73.40;;;;;;4997707;27;87768;-87
2022/10/30 03:33:13;;;;;;;6.82;4.95;;;21.50;73.40;;;;;;4997730;27;87244;-87
2022/10/30 03:35:38;;;;;;;7.18;4.97;;;21.50;73.40;;;;;;4998810;28;87921;-87
2022/10/30 03:38:04;;;;;;;6.50;4.88;;;21.50;73.40;;;;;;4998034;27;87371;-88
2022/10/30 03:40:29;;;;;;;6.32;4.78;;;21.50;73.40;;;;;;4995553;27;90047;-87
2022/10/30 03:42:57;;;;;;;7.28;5.25;;;21.50;73.40;;;;;;4996367;27;89425;-86
2022/10/30 03:45:23;;;;;;;6.88;5.07;;;21.50;73.30;;;;;;4996921;27;89186;-87
2022/10/30 03:47:48;;;;;;;5.82;4.60;;;21.50;73.10;;;;;;4995835;28;87516;-87
2022/10/30 03:50:14;;;;;;;6.80;4.55;;;21.50;73.30;;;;;;4998226;27;87183;-88
2022/10/30 03:52:39;;;;;;;6.97;5.07;;;21.50;73.30;;;;;;4997798;27;88543;-87
2022/10/30 03:55:05;;;;;;;8.23;4.95;;;21.40;73.10;;;;;;4995696;28;90652;-88
2022/10/30 03:57:36;;;;;;;7.57;5.30;;;21.50;73.40;;;;;;4997535;27;86967;-88
2022/10/30 04:00:02;;;;;;;6.82;4.88;;;21.50;73.30;;;;;;4998792;28;87045;-87
2022/10/30 04:02:28;;;;;;;7.35;5.10;;;21.40;73.10;;;;;;4997206;27;90688;-88
2022/10/30 04:04:53;;;;;;;9.40;5.00;;;21.40;73.30;;;;;;4988392;27;88178;-87
2022/10/30 04:07:19;;;;;;;6.43;4.63;;;21.40;73.20;;;;;;4997934;27;87965;-87
2022/10/30 04:09:45;;;;;;;6.05;4.28;;;21.40;73.30;;;;;;4997798;27;87935;-87
2022/10/30 04:12:10;;;;;;;7.75;5.35;;;21.50;73.40;;;;;;4997482;27;88526;-87
2022/10/30 04:14:36;;;;;;;6.05;4.15;;;21.40;73.40;;;;;;4997816;28;88946;-87
2022/10/30 04:17:01;;;;;;;7.22;4.50;;;21.40;73.10;;;;;;4997294;27;86985;-87
2022/10/30 04:19:27;;;;;;;7.25;4.45;;;21.40;73.30;;;;;;4997351;27;87566;-88
2022/10/30 04:21:52;;;;;;;6.05;3.85;;;21.40;73.20;;;;;;4996920;27;89018;-87
2022/10/30 04:24:18;;;;;;;5.30;4.45;;;21.40;73.40;;;;;;4997529;27;87575;-87
2022/10/30 04:26:44;;;;;;;7.13;4.47;;;21.40;73.30;;;;;;4997977;28;87057;-87
2022/10/30 04:29:09;;;;;;;7.78;4.55;;;21.40;73.10;;;;;;4996934;27;87284;-87
2022/10/30 04:31:35;;;;;;;5.82;4.30;;;21.40;73.10;;;;;;4996782;27;89588;-86
2022/10/30 04:34:11;;;;;;;6.55;4.72;;;21.40;73.10;;;;;;4996883;27;88971;-87
2022/10/30 04:36:37;;;;;;;7.07;4.85;;;21.40;72.90;;;;;;4996695;27;87296;-87
2022/10/30 04:39:03;;;;;;;7.78;4.82;;;21.40;73.00;;;;;;4997676;28;87319;-88
2022/10/30 04:41:28;;;;;;;7.28;4.47;;;21.40;73.00;;;;;;4997136;27;88640;-87
2022/10/30 04:43:54;;;;;;;5.53;4.10;;;21.40;72.80;;;;;;5028655;27;91165;-88
2022/10/30 04:46:20;;;;;;;6.20;4.32;;;21.50;72.70;;;;;;4996462;27;87308;-86
2022/10/30 04:48:45;;;;;;;6.80;4.65;;;21.50;72.80;;;;;;4997197;27;86554;-86
2022/10/30 04:51:12;;;;;;;5.75;4.15;;;21.50;72.90;;;;;;4996417;27;87610;-86
2022/10/30 04:53:38;;;;;;;9.23;5.10;;;21.40;73.10;;;;;;4996280;28;88264;-87
2022/10/30 04:56:05;;;;;;;8.30;5.18;;;21.40;73.30;;;;;;4995620;28;93849;-87
2022/10/30 04:58:31;;;;;;;7.68;5.22;;;21.40;73.20;;;;;;4995892;27;89986;-86
2022/10/30 05:01:01;;;;;;;5.15;4.18;;;21.40;73.50;;;;;;4996209;27;88072;-86
2022/10/30 05:03:27;;;;;;;7.25;4.38;;;21.40;73.50;;;;;;4996218;27;87971;-86
2022/10/30 05:05:57;;;;;;;6.53;4.90;;;21.50;73.50;;;;;;4997231;28;87543;-86
2022/10/30 05:08:23;;;;;;;7.30;4.80;;;21.40;73.50;;;;;;4995570;27;86928;-85
2022/10/30 05:10:48;;;;;;;5.10;3.97;;;21.50;73.50;;;;;;4995201;27;88176;-85
2022/10/30 05:13:22;;;;;;;5.35;4.45;;;21.40;73.50;;;;;;4987473;27;87852;-87
2022/10/30 05:15:47;;;;;;;7.25;4.90;;;21.40;73.70;;;;;;4994772;27;87277;-87
2022/10/30 05:18:13;;;;;;;6.03;4.70;;;21.40;73.80;;;;;;4994703;27;87436;-86
2022/10/30 05:20:38;;;;;;;6.85;4.30;;;21.50;73.70;;;;;;4995766;28;89196;-86
2022/10/30 05:23:04;;;;;;;6.18;4.72;;;21.40;73.60;;;;;;4994906;27;87303;-86
2022/10/30 05:25:30;;;;;;;5.32;4.15;;;21.40;73.70;;;;;;4995442;27;87000;-86
2022/10/30 05:28:00;;;;;;;6.13;4.00;;;21.40;73.80;;;;;;4995113;27;87436;-86
2022/10/30 05:30:27;;;;;;;7.30;4.38;;;21.40;73.60;;;;;;4994702;27;88808;-87
2022/10/30 05:33:01;;;;;;;6.00;4.10;;;21.40;73.70;;;;;;4993859;28;87867;-86
2022/10/30 05:35:28;;;;;;;6.45;4.90;;;21.40;73.80;;;;;;4993227;27;87511;-86
2022/10/30 05:37:53;;;;;;;6.57;4.15;;;21.40;73.90;;;;;;4994877;27;87041;-86
2022/10/30 05:40:19;;;;;;;7.47;4.63;;;21.40;73.80;;;;;;4994804;27;88180;-85
2022/10/30 05:42:46;;;;;;;6.60;4.90;;;21.40;73.90;;;;;;4995212;27;88995;-85
2022/10/30 05:45:12;;;;;;;6.32;4.32;;;21.40;73.90;;;;;;4994924;27;88479;-86
2022/10/30 05:47:37;;;;;;;6.38;4.45;;;21.40;73.90;;;;;;4995498;28;87556;-86
2022/10/30 05:50:04;;;;;;;7.85;4.85;;;21.40;73.90;;;;;;4994737;27;88132;-86
2022/10/30 05:52:29;;;;;;;6.72;4.47;;;21.40;74.00;;;;;;4992962;27;90343;-85
2022/10/30 05:54:55;;;;;;;7.68;4.75;;;21.30;73.90;;;;;;4995325;27;86933;-86
2022/10/30 05:57:21;;;;;;;7.40;4.40;;;21.30;73.80;;;;;;4993727;27;86895;-88
2022/10/30 05:59:46;;;;;;;7.85;4.95;;;21.40;73.90;;;;;;4995305;28;88711;-85
2022/10/30 06:02:12;;;;;;;8.88;4.65;;;21.30;73.80;;;;;;4993878;27;88539;-84
2022/10/30 06:04:37;;;;;;;10.32;4.63;;;21.30;73.80;;;;;;4994696;27;86896;-87
2022/10/30 06:07:03;;;;;;;9.50;5.28;;;21.40;73.60;;;;;;4994966;27;87592;-87
2022/10/30 06:09:29;;;;;;;11.82;5.03;;;21.40;73.30;;;;;;4993709;27;91741;-87
2022/10/30 06:11:54;;;;;;;10.60;4.80;;;21.40;73.30;;;;;;4996838;28;88737;-88
2022/10/30 06:14:20;;;;;;;13.73;4.72;;;21.30;73.20;;;;;;4995864;27;87178;-88
2022/10/30 06:16:46;;;;;;;9.95;4.82;;;21.30;73.30;;;;;;4994782;27;87914;-88
2022/10/30 06:19:12;;;;;;;15.27;5.47;;;21.30;73.50;;;;;;4995782;27;88074;-88
2022/10/30 06:21:38;;;;;;;9.95;4.75;;;21.30;73.50;;;;;;4995026;27;88713;-87
2022/10/30 06:24:03;;;;;;;11.50;4.57;;;21.30;73.40;;;;;;4996954;28;86842;-88
2022/10/30 06:26:29;;;;;;;11.63;5.00;;;21.20;73.40;;;;;;4995844;28;91167;-87
2022/10/30 06:28:55;;;;;;;10.98;5.00;;;21.20;73.40;;;;;;4995544;27;89099;-88
2022/10/30 06:31:20;;;;;;;10.88;5.30;;;21.30;73.20;;;;;;4996227;27;86968;-88
2022/10/30 06:33:46;;;;;;;8.82;4.85;;;21.20;73.20;;;;;;4994981;27;88448;-88
2022/10/30 06:36:11;;;;;;;10.23;4.95;;;21.20;73.20;;;;;;4995246;27;87027;-87
2022/10/30 06:38:37;;;;;;;11.27;4.53;;;21.20;73.20;;;;;;4996191;28;88057;-87
2022/10/30 06:41:03;;;;;;;10.50;4.90;;;21.20;73.20;;;;;;4993419;28;90295;-88
2022/10/30 06:43:30;;;;;;;11.15;4.88;;;21.20;73.20;;;;;;4994182;27;86944;-88
2022/10/30 06:46:01;;;;;;;12.00;5.20;;;21.20;73.10;;;;;;4994793;27;87543;-88
2022/10/30 06:48:26;;;;;;;12.70;4.70;;;21.20;73.10;;;;;;4985625;27;91507;-87
2022/10/30 06:50:54;;;;;;;12.07;4.65;;;21.20;73.20;;;;;;4995927;28;88118;-89
2022/10/30 06:53:19;;;;;;;11.27;4.82;;;21.20;73.10;;;;;;4995454;27;86950;-88
2022/10/30 06:55:52;;;;;;;11.77;4.88;;;21.20;72.90;;;;;;4995140;27;87590;-88
2022/10/30 06:58:17;;;;;;;11.20;3.97;;;21.20;72.90;;;;;;4993670;27;89169;-88
2022/10/30 07:00:43;;;;;;;12.65;5.43;;;21.20;73.00;;;;;;4994699;27;88099;-88
2022/10/30 07:03:09;;;;;;;9.07;4.43;;;21.20;72.80;;;;;;4995301;27;87609;-87
2022/10/30 07:05:34;;;;;;;9.20;4.38;;;21.20;72.70;;;;;;4996074;28;87167;-88
2022/10/30 07:08:00;;;;;;;7.57;4.25;;;21.20;72.70;;;;;;4994937;27;88517;-88
2022/10/30 07:10:25;;;;;;;8.25;4.53;;;21.20;72.80;;;;;;4994991;27;87774;-88
2022/10/30 07:12:52;;;;;;;11.43;4.93;;;21.20;72.40;;;;;;5010403;27;87025;-88
2022/10/30 07:15:18;;;;;;;10.07;4.35;;;21.30;72.40;;;;;;4994769;27;87282;-88
2022/10/30 07:17:57;;;;;;;9.75;5.03;;;21.40;72.30;;;;;;5000339;28;88428;-87
2022/10/30 07:20:24;;;;;;;10.45;4.50;;;21.40;72.10;;;;;;4994233;27;87819;-86
2022/10/30 07:22:49;;;;;;;10.57;4.93;;;21.40;72.00;;;;;;4993934;27;88231;-86
2022/10/30 07:25:15;;;;;;;10.55;5.60;;;21.40;72.10;;;;;;4994642;27;87087;-86
2022/10/30 07:27:47;;;;;;;51.88;13.45;;;21.50;72.20;;;;;;4994639;27;87951;-87
2022/10/30 07:30:14;;;;;;;22.98;8.00;;;21.40;70.60;;;;;;4993604;27;87389;-86
2022/10/30 07:32:40;;;;;;;21.08;7.90;;;21.40;72.00;;;;;;4995509;28;87443;-86
2022/10/30 07:35:06;;;;;;;20.75;7.50;;;21.40;72.40;;;;;;4993582;27;87072;-84
2022/10/30 07:37:32;;;;;;;20.17;7.15;;;21.40;70.60;;;;;;4994582;27;88495;-85
2022/10/30 07:39:57;;;;;;;22.63;7.40;;;21.40;69.90;;;;;;4994587;27;87841;-84
2022/10/30 07:42:23;;;;;;;24.25;7.78;;;21.30;70.30;;;;;;4994314;27;87335;-86
2022/10/30 07:44:48;;;;;;;28.92;8.68;;;21.30;70.80;;;;;;4992063;28;87478;-88
2022/10/30 07:47:14;;;;;;;28.63;9.90;;;21.40;70.60;;;;;;4994908;27;88746;-88
2022/10/30 07:49:39;;;;;;;34.97;10.20;;;21.30;70.50;;;;;;4992526;27;88946;-88
2022/10/30 07:52:05;;;;;;;44.05;11.85;;;21.50;71.40;;;;;;4982906;28;86952;-90
2022/10/30 07:54:31;;;;;;;42.85;12.77;;;21.50;72.00;;;;;;4991221;28;87661;-87
2022/10/30 07:56:57;;;;;;;40.47;13.07;;;21.50;72.30;;;;;;4997276;28;88202;-87
2022/10/30 07:59:24;;;;;;;38.83;12.73;;;21.40;72.60;;;;;;4996374;27;88219;-88
2022/10/30 08:01:50;;;;;;;41.20;12.93;;;21.40;73.80;;;;;;5025783;27;87605;-87
2022/10/30 08:04:16;;;;;;;47.35;13.13;;;21.40;73.70;;;;;;4967582;27;89603;-86
2022/10/30 08:06:42;;;;;;;33.60;10.98;;;21.40;70.70;;;;;;4996490;27;91032;-87
2022/10/30 08:09:10;;;;;;;37.67;12.23;;;21.30;68.90;;;;;;4965244;28;91348;-88
2022/10/30 08:11:35;;;;;;;34.58;11.65;;;21.40;71.40;;;;;;5000231;28;88415;-87
2022/10/30 08:14:01;;;;;;;30.00;11.65;;;21.40;72.20;;;;;;4979739;27;90080;-87
2022/10/30 08:16:27;;;;;;;30.63;10.25;;;21.50;72.00;;;;;;4963671;28;88749;-88
2022/10/30 08:18:53;;;;;;;36.58;11.73;;;21.60;70.40;;;;;;4966087;27;87403;-90
2022/10/30 08:21:18;;;;;;;27.42;11.10;;;21.60;70.40;;;;;;4963789;28;87629;-85
2022/10/30 08:23:44;;;;;;;36.85;9.98;;;21.70;70.10;;;;;;4961511;28;87490;-85
2022/10/30 08:26:10;;;;;;;29.55;10.60;;;21.80;68.80;;;;;;4963539;28;87645;-84
2022/10/30 08:28:35;;;;;;;25.17;9.98;;;21.70;69.20;;;;;;4962397;28;86623;-85
2022/10/30 08:31:02;;;;;;;28.58;10.77;;;21.80;68.30;;;;;;4965290;28;87297;-88
2022/10/30 08:33:28;;;;;;;24.92;8.77;;;21.80;68.80;;;;;;4966569;28;87483;-86
2022/10/30 08:35:56;;;;;;;33.22;10.00;;;21.80;67.00;;;;;;4967085;28;89624;-88
2022/10/30 08:38:23;;;;;;;27.17;9.47;;;21.80;68.00;;;;;;4966862;27;90140;-88
2022/10/30 08:40:48;;;;;;;25.45;8.57;;;21.70;68.50;;;;;;4981650;27;87301;-88
2022/10/30 08:43:14;;;;;;;25.45;9.73;;;21.70;68.50;;;;;;4982430;27;90877;-88
2022/10/30 08:45:40;;;;;;;26.23;8.95;;;21.50;69.40;;;;;;4967569;27;88856;-89
2022/10/30 08:48:14;;;;;;;30.48;9.75;;;21.50;67.30;;;;;;4967621;27;88337;-90
2022/10/30 08:50:40;;;;;;;33.90;11.00;;;21.60;69.00;;;;;;4965002;28;87188;-86
2022/10/30 08:53:07;;;;;;;27.65;10.32;;;21.60;69.40;;;;;;4966327;27;89047;-88
2022/10/30 08:55:34;;;;;;;29.45;10.80;;;21.60;69.50;;;;;;4957171;28;88159;-89
2022/10/30 08:58:00;;;;;;;29.42;10.48;;;21.60;69.80;;;;;;4967467;28;87502;-88
2022/10/30 09:00:26;;;;;;;35.22;12.18;;;21.60;72.10;;;;;;4966394;28;87916;-89
2022/10/30 09:02:52;;;;;;;26.10;10.30;;;21.60;76.70;;;;;;4970739;28;87260;-88
2022/10/30 09:05:18;;;;;;;26.52;10.75;;;21.60;75.20;;;;;;4977328;28;87925;-86
2022/10/30 09:07:44;;;;;;;27.27;11.48;;;21.60;74.00;;;;;;4965317;27;87774;-90
2022/10/30 09:10:10;;;;;;;26.30;11.25;;;21.60;74.50;;;;;;4965262;28;87440;-87
2022/10/30 09:12:35;;;;;;;28.48;10.80;;;21.70;77.30;;;;;;4966348;28;87327;-91
2022/10/30 09:15:01;;;;;;;24.55;10.57;;;21.60;73.60;;;;;;4966414;28;88353;-88
2022/10/30 09:17:26;;;;;;;26.75;11.15;;;21.60;73.60;;;;;;4966646;28;88499;-89
2022/10/30 09:19:53;;;;;;;23.50;10.75;;;21.50;73.20;;;;;;4966225;28;87617;-88
2022/10/30 09:22:18;;;;;;;23.33;11.35;;;21.50;73.40;;;;;;4965414;28;87507;-88
2022/10/30 09:24:44;;;;;;;26.35;10.95;;;21.50;73.50;;;;;;4965501;27;89951;-89
2022/10/30 09:27:10;;;;;;;25.08;11.18;;;21.40;73.80;;;;;;4965898;28;87736;-89
2022/10/30 09:29:35;;;;;;;24.45;11.43;;;21.40;73.80;;;;;;4966378;28;87216;-89
2022/10/30 09:32:03;;;;;;;21.30;10.23;;;21.40;74.20;;;;;;4964532;28;87109;-89
2022/10/30 09:34:32;;;;;;;19.33;10.27;;;21.40;74.40;;;;;;4965776;27;89797;-88
2022/10/30 09:36:57;;;;;;;24.15;10.65;;;21.50;74.90;;;;;;4980457;28;91451;-90
2022/10/30 09:39:24;;;;;;;20.20;10.88;;;21.40;75.00;;;;;;4965218;28;87151;-91
2022/10/30 09:42:35;;;;;;;25.30;10.98;;;21.40;74.60;;;;;;4981985;28;89407;-89
2022/10/30 09:45:03;;;;;;;18.00;10.35;;;21.40;74.60;;;;;;4981561;28;95683;-88
2022/10/30 09:47:56;;;;;;;27.92;10.48;;;21.40;74.60;;;;;;4966314;28;87503;-91
2022/10/30 09:50:38;;;;;;;17.73;9.65;;;21.40;74.40;;;;;;4965483;28;88034;-90
2022/10/30 09:53:14;;;;;;;18.90;10.23;;;21.40;74.60;;;;;;4981113;28;89604;-88
2022/10/30 09:55:56;;;;;;;21.48;10.02;;;21.40;74.70;;;;;;4979765;28;90383;-89
2022/10/30 09:58:45;;;;;;;17.02;8.90;;;21.40;74.30;;;;;;4957358;28;88927;-87
2022/10/30 10:01:36;;;;;;;33.03;13.40;;;21.40;74.20;;;;;;4982005;28;87018;-87
2022/10/30 10:04:38;;;;;;;34.63;13.40;;;21.40;74.30;;;;;;4942239;28;87719;-90
2022/10/30 10:07:18;;;;;;;29.48;11.57;;;21.40;74.10;;;;;;4946256;28;87916;-90
2022/10/30 10:09:46;;;;;;;38.95;14.35;;;21.50;72.20;;;;;;4943373;28;88429;-90
2022/10/30 10:12:38;;;;;;;36.80;14.85;;;21.50;72.80;;;;;;4960611;28;87535;-88
2022/10/30 10:15:28;;;;;;;38.22;14.15;;;21.50;73.40;;;;;;4960781;28;90065;-89
2022/10/30 10:17:57;;;;;;;42.85;14.70;;;21.50;73.30;;;;;;4875335;28;93579;-89
2022/10/30 10:20:36;;;;;;;49.85;14.30;;;21.50;73.40;;;;;;4875471;28;88971;-89
2022/10/30 10:23:19;;;;;;;42.15;15.57;;;21.50;73.30;;;;;;4875852;28;87245;-89
2022/10/30 10:25:52;;;;;;;45.33;14.18;;;21.50;73.50;;;;;;4881728;28;90775;-88
2022/10/30 10:28:51;;;;;;;36.17;13.18;;;21.50;73.40;;;;;;4874927;28;88331;-89
2022/10/30 10:31:53;;;;;;;38.22;14.65;;;21.50;73.50;;;;;;4876260;28;91970;-88
2022/10/30 10:34:30;;;;;;;40.33;14.05;;;21.50;73.70;;;;;;4855489;29;87014;-88
2022/10/30 10:37:26;;;;;;;35.30;13.57;;;21.50;73.80;;;;;;4856977;28;87493;-88
2022/10/30 10:40:02;;;;;;;40.85;14.43;;;21.50;74.10;;;;;;4856941;29;87483;-88
2022/10/30 10:42:45;;;;;;;33.20;13.35;;;21.50;74.50;;;;;;4895025;28;87828;-90
2022/10/30 10:45:18;;;;;;;34.13;13.93;;;21.50;74.50;;;;;;4894018;28;88405;-89
2022/10/30 10:48:21;;;;;;;39.67;14.32;;;21.50;74.70;;;;;;4894215;28;87094;-90
2022/10/30 10:51:15;;;;;;;37.70;14.77;;;21.50;74.70;;;;;;4894325;28;92880;-87
2022/10/30 10:53:53;;;;;;;39.15;14.57;;;21.50;74.90;;;;;;4893766;28;92656;-88
2022/10/30 10:56:33;;;;;;;37.77;13.77;;;21.50;74.90;;;;;;4961881;28;87756;-87
2022/10/30 10:59:25;;;;;;;40.47;13.02;;;21.50;75.00;;;;;;4963152;28;87639;-88
2022/10/30 11:01:58;;;;;;;38.05;13.07;;;21.50;74.40;;;;;;4897097;28;91542;-89
2022/10/30 11:04:40;;;;;;;44.33;13.63;;;21.60;74.10;;;;;;4913916;28;88305;-87
2022/10/30 11:07:24;;;;;;;33.30;13.02;;;21.60;74.40;;;;;;4913397;28;87336;-90
2022/10/30 11:09:52;;;;;;;27.38;12.20;;;21.50;74.50;;;;;;4913986;28;88156;-92
2022/10/30 11:12:29;;;;;;;29.17;12.35;;;21.50;74.60;;;;;;4930854;28;89193;-90
2022/10/30 11:14:57;;;;;;;33.30;12.27;;;21.60;74.70;;;;;;4934645;28;88761;-90
2022/10/30 11:17:37;;;;;;;27.05;12.85;;;21.60;74.80;;;;;;4939227;28;87062;-92
2022/10/30 11:20:19;;;;;;;35.03;12.98;;;21.50;75.00;;;;;;4933909;28;87234;-90
2022/10/30 11:22:49;;;;;;;34.55;13.07;;;21.50;75.00;;;;;;4933841;28;88224;-90
2022/10/30 11:25:22;;;;;;;26.85;12.20;;;21.60;74.90;;;;;;4932905;28;87423;-89
2022/10/30 11:27:59;;;;;;;29.88;11.85;;;21.70;73.90;;;;;;4932924;28;87272;-88
2022/10/30 11:30:27;;;;;;;25.92;11.95;;;21.60;74.20;;;;;;4936829;28;86694;-91
2022/10/30 11:32:53;;;;;;;29.75;12.55;;;21.60;74.20;;;;;;4937466;28;88614;-90
2022/10/30 11:35:20;;;;;;;28.45;12.68;;;21.60;74.60;;;;;;4952545;28;91576;-91
2022/10/30 11:37:53;;;;;;;30.63;13.30;;;21.60;75.10;;;;;;4937466;28;87943;-89
2022/10/30 11:40:21;;;;;;;29.33;12.00;;;21.70;75.00;;;;;;4957333;28;90459;-90
2022/10/30 11:42:56;;;;;;;27.70;11.95;;;21.60;75.20;;;;;;4966535;28;88986;-89
2022/10/30 11:45:28;;;;;;;26.08;12.18;;;21.60;75.20;;;;;;4967091;28;92232;-89
2022/10/30 11:47:57;;;;;;;23.77;11.05;;;21.60;75.90;;;;;;4969078;28;87244;-89
2022/10/30 11:50:25;;;;;;;26.35;11.73;;;21.60;74.70;;;;;;4967269;27;87496;-90
2022/10/30 11:52:55;;;;;;;32.03;13.32;;;21.60;75.00;;;;;;4974208;28;91276;-89
2022/10/30 11:55:37;;;;;;;34.63;12.57;;;21.60;75.40;;;;;;4968229;28;88939;-91
2022/10/30 11:58:05;;;;;;;29.75;10.90;;;21.60;75.20;;;;;;4966389;27;87069;-89
2022/10/30 12:00:33;;;;;;;29.55;12.18;;;21.60;75.20;;;;;;4983153;27;90043;-91
2022/10/30 12:02:59;;;;;;;28.25;11.98;;;21.60;74.60;;;;;;4983341;28;91234;-91
2022/10/30 12:05:35;;;;;;;26.25;11.35;;;21.60;75.50;;;;;;4965627;28;91119;-90
2022/10/30 12:08:07;;;;;;;28.15;12.23;;;21.60;75.60;;;;;;4974369;28;87623;-91
2022/10/30 12:10:45;;;;;;;28.80;11.90;;;21.60;75.90;;;;;;4981826;28;90598;-90
2022/10/30 12:13:15;;;;;;;29.83;11.88;;;21.70;75.60;;;;;;4965786;27;88816;-88
2022/10/30 12:15:42;;;;;;;33.22;12.98;;;21.60;75.50;;;;;;4967684;27;87314;-91
2022/10/30 12:18:18;;;;;;;28.70;12.35;;;21.60;75.70;;;;;;4966545;27;87280;-91
2022/10/30 12:20:46;;;;;;;30.65;12.73;;;21.60;75.60;;;;;;4968471;28;87241;-89
2022/10/30 12:23:19;;;;;;;25.95;12.07;;;21.60;75.50;;;;;;4966467;28;88246;-91
2022/10/30 12:25:52;;;;;;;27.40;12.15;;;21.70;75.90;;;;;;4965671;28;92127;-91
2022/10/30 12:28:30;;;;;;;18.65;7.80;;;21.70;75.70;;;;;;4967326;28;88643;-90
2022/10/30 12:31:08;;;;;;;27.02;11.85;;;21.70;70.20;;;;;;4966194;28;87449;-89
2022/10/30 12:33:56;;;;;;;27.35;11.15;;;21.80;73.00;;;;;;4982164;27;92577;-89
2022/10/30 12:36:26;;;;;;;25.85;10.82;;;21.70;73.70;;;;;;4967151;28;88563;-89
2022/10/30 12:39:18;;;;;;;27.63;12.20;;;21.70;74.20;;;;;;4974406;28;87333;-89
2022/10/30 12:42:02;;;;;;;25.50;11.20;;;21.70;74.20;;;;;;4964502;28;94758;-90
2022/10/30 12:44:45;;;;;;;30.67;12.25;;;21.60;74.50;;;;;;4967339;28;88081;-89
2022/10/30 12:47:48;;;;;;;23.83;11.50;;;21.60;74.20;;;;;;4966458;28;88627;-89
2022/10/30 12:50:26;;;;;;;27.15;11.63;;;21.60;74.30;;;;;;4966904;27;87303;-89
2022/10/30 12:53:21;;;;;;;23.98;11.63;;;21.60;74.50;;;;;;4966722;28;87460;-89
2022/10/30 12:55:55;;;;;;;22.30;10.70;;;21.60;74.50;;;;;;4965889;28;89485;-89